createdAt,value
2023-03-31T00:02:22.868Z,2.53
2023-03-31T00:04:52.921Z,2.30
2023-03-31T00:07:23.833Z,2.05
2023-03-31T00:10:00.910Z,2.73
2023-03-31T00:12:37.067Z,2.30
2023-03-31T00:15:04.084Z,2.38
2023-03-31T00:17:34.952Z,3.00
2023-03-31T00:20:05.787Z,2.50
2023-03-31T00:22:32.578Z,2.77
2023-03-31T00:24:59.674Z,2.70
2023-03-31T00:27:28.461Z,2.78
2023-03-31T00:29:55.805Z,2.55
2023-03-31T00:32:22.641Z,2.88
2023-03-31T00:34:49.388Z,2.70
2023-03-31T00:37:16.127Z,2.20
2023-03-31T00:39:43.305Z,2.72
2023-03-31T00:42:12.965Z,2.20
2023-03-31T00:45:14.833Z,2.03
2023-03-31T00:47:45.849Z,2.23
2023-03-31T00:50:45.435Z,2.35
2023-03-31T00:53:15.906Z,1.90
2023-03-31T00:55:47.398Z,1.90
2023-03-31T00:58:20.119Z,2.42
2023-03-31T01:00:48.976Z,1.60
2023-03-31T01:03:16.220Z,1.80
2023-03-31T01:05:45.721Z,1.63
2023-03-31T01:08:13.803Z,1.73
2023-03-31T01:10:52.968Z,2.00
2023-03-31T01:13:21.466Z,1.90
2023-03-31T01:15:50.360Z,1.65
2023-03-31T01:18:21.262Z,2.00
2023-03-31T01:21:18.858Z,1.60
2023-03-31T01:24:19.876Z,2.17
2023-03-31T01:27:24.264Z,1.87
2023-03-31T01:30:26.286Z,1.58
2023-03-31T01:33:14.948Z,1.70
2023-03-31T01:35:47.721Z,1.77
2023-03-31T01:38:44.231Z,2.00
2023-03-31T01:41:16.912Z,2.00
2023-03-31T01:44:14.461Z,2.08
2023-03-31T01:46:51.558Z,2.05
2023-03-31T01:49:24.102Z,2.13
2023-03-31T01:52:07.050Z,2.22
2023-03-31T01:55:01.350Z,2.17
2023-03-31T01:57:36.146Z,2.40
2023-03-31T02:00:09.727Z,2.30
2023-03-31T02:02:40.204Z,2.60
2023-03-31T02:05:18.099Z,2.30
2023-03-31T02:08:13.445Z,2.13
2023-03-31T02:10:42.862Z,2.47
2023-03-31T02:13:13.883Z,2.00
2023-03-31T02:15:43.789Z,2.00
2023-03-31T02:18:17.406Z,2.00
2023-03-31T02:20:48.447Z,2.00
2023-03-31T02:23:19.689Z,1.90
2023-03-31T02:25:53.664Z,1.40
2023-03-31T02:28:23.772Z,1.30
2023-03-31T02:31:00.938Z,1.05
2023-03-31T02:33:28.355Z,1.10
2023-03-31T02:35:55.320Z,0.90
2023-03-31T02:38:22.391Z,1.00
2023-03-31T02:40:49.303Z,1.38
2023-03-31T02:43:16.179Z,1.88
2023-03-31T02:45:49.563Z,1.80
2023-03-31T02:48:17.311Z,2.30
2023-03-31T02:51:13.515Z,2.70
2023-03-31T02:54:20.783Z,2.75
2023-03-31T02:57:23.296Z,2.60
2023-03-31T03:00:14.256Z,3.00
2023-03-31T03:03:09.467Z,3.05
2023-03-31T03:05:41.180Z,3.20
2023-03-31T03:08:30.767Z,3.40
2023-03-31T03:11:22.486Z,3.33
2023-03-31T03:14:00.597Z,2.67
2023-03-31T03:16:32.905Z,2.83
2023-03-31T03:19:02.552Z,2.70
2023-03-31T03:21:29.906Z,2.42
2023-03-31T03:23:57.320Z,2.40
2023-03-31T03:26:24.344Z,2.50
2023-03-31T03:28:51.568Z,2.25
2023-03-31T03:31:19.247Z,2.30
2023-03-31T03:33:46.551Z,2.85
2023-03-31T03:36:13.389Z,2.20
2023-03-31T03:38:40.199Z,2.30
2023-03-31T03:41:07.152Z,2.10
2023-03-31T03:43:34.278Z,2.30
2023-03-31T03:46:01.401Z,2.40
2023-03-31T03:48:28.359Z,3.00
2023-03-31T03:50:55.571Z,2.40
2023-03-31T03:53:22.317Z,2.60
2023-03-31T03:55:49.729Z,2.63
2023-03-31T03:58:17.376Z,2.70
2023-03-31T04:00:45.384Z,2.75
2023-03-31T04:03:13.129Z,2.70
2023-03-31T04:05:39.954Z,2.63
2023-03-31T04:08:08.442Z,2.47
2023-03-31T04:10:35.992Z,2.83
2023-03-31T04:13:02.997Z,2.75
2023-03-31T04:15:29.787Z,2.70
2023-03-31T04:17:58.178Z,2.40
2023-03-31T04:20:30.702Z,2.55
2023-03-31T04:22:57.783Z,3.00
2023-03-31T04:25:24.517Z,2.58
2023-03-31T04:27:55.314Z,2.53
2023-03-31T04:30:24.502Z,2.40
2023-03-31T04:32:59.934Z,2.45
2023-03-31T04:35:49.455Z,2.50
2023-03-31T04:38:21.112Z,2.20
2023-03-31T04:40:50.362Z,2.20
2023-03-31T04:43:18.992Z,2.10
2023-03-31T04:45:45.907Z,2.15
2023-03-31T04:48:13.209Z,2.08
2023-03-31T04:50:40.282Z,2.20
2023-03-31T04:53:07.191Z,1.80
2023-03-31T04:55:34.402Z,1.88
2023-03-31T04:58:01.583Z,1.77
2023-03-31T05:00:29.036Z,2.00
2023-03-31T05:02:57.117Z,1.60
2023-03-31T05:05:24.126Z,2.10
2023-03-31T05:07:50.873Z,1.80
2023-03-31T05:10:17.691Z,1.65
2023-03-31T05:12:44.721Z,1.52
2023-03-31T05:15:11.633Z,1.67
2023-03-31T05:17:38.433Z,1.40
2023-03-31T05:20:06.936Z,1.50
2023-03-31T05:22:39.185Z,1.35
2023-03-31T05:25:08.354Z,1.33
2023-03-31T05:27:35.992Z,1.63
2023-03-31T05:30:04.646Z,1.40
2023-03-31T05:32:31.484Z,1.30
2023-03-31T05:34:58.194Z,1.20
2023-03-31T05:37:25.608Z,1.15
2023-03-31T05:39:53.012Z,1.25
2023-03-31T05:42:20.195Z,1.40
2023-03-31T05:44:47.108Z,1.42
2023-03-31T05:47:14.524Z,1.35
2023-03-31T05:49:41.459Z,1.20
2023-03-31T05:52:09.181Z,1.15
2023-03-31T05:54:36.027Z,1.20
2023-03-31T05:57:03.501Z,0.95
2023-03-31T05:59:30.785Z,1.27
2023-03-31T06:01:58.421Z,1.30
2023-03-31T06:04:25.225Z,1.23
2023-03-31T06:06:54.056Z,1.00
2023-03-31T06:09:21.351Z,1.13
2023-03-31T06:11:50.441Z,1.30
2023-03-31T06:14:17.528Z,1.30
2023-03-31T06:16:44.245Z,1.10
2023-03-31T06:19:11.026Z,1.20
2023-03-31T06:21:37.763Z,1.10
2023-03-31T06:24:04.931Z,1.10
2023-03-31T06:26:31.835Z,1.40
2023-03-31T06:28:58.725Z,1.30
2023-03-31T06:31:26.870Z,1.00
2023-03-31T06:33:54.145Z,1.20
2023-03-31T06:36:25.329Z,0.90
2023-03-31T06:38:52.556Z,0.80
2023-03-31T06:41:21.189Z,1.27
2023-03-31T06:43:48.220Z,1.30
2023-03-31T06:46:15.703Z,1.10
2023-03-31T06:48:42.505Z,1.02
2023-03-31T06:51:09.626Z,1.10
2023-03-31T06:53:37.004Z,1.00
2023-03-31T06:56:05.231Z,0.93
2023-03-31T06:58:32.527Z,0.82
2023-03-31T07:01:01.944Z,1.08
2023-03-31T07:03:29.567Z,0.70
2023-03-31T07:05:56.697Z,0.90
2023-03-31T07:08:24.588Z,0.80
2023-03-31T07:10:57.712Z,1.00
2023-03-31T07:13:25.427Z,1.00
2023-03-31T07:15:52.739Z,1.13
2023-03-31T07:18:20.600Z,1.05
2023-03-31T07:20:51.032Z,1.20
2023-03-31T07:23:18.755Z,1.08
2023-03-31T07:25:47.225Z,1.40
2023-03-31T07:28:14.022Z,1.65
2023-03-31T07:30:41.453Z,1.13
2023-03-31T07:33:08.711Z,1.40
2023-03-31T07:35:41.854Z,1.50
2023-03-31T07:38:10.340Z,1.70
2023-03-31T07:40:37.584Z,1.90
2023-03-31T07:43:04.866Z,2.10
2023-03-31T07:45:31.867Z,2.10
2023-03-31T07:47:59.110Z,2.50
2023-03-31T07:50:26.165Z,2.30
2023-03-31T07:52:53.110Z,2.60
2023-03-31T07:55:20.400Z,2.33
2023-03-31T07:57:47.726Z,2.50
2023-03-31T08:00:15.861Z,2.60
2023-03-31T08:02:44.863Z,2.42
2023-03-31T08:05:14.387Z,2.58
2023-03-31T08:07:44.027Z,2.45
2023-03-31T08:10:18.063Z,2.57
2023-03-31T08:12:44.983Z,2.70
2023-03-31T08:15:12.279Z,2.50
2023-03-31T08:17:39.570Z,2.63
2023-03-31T08:20:08.187Z,3.22
2023-03-31T08:22:35.509Z,3.07
2023-03-31T08:25:02.792Z,2.80
2023-03-31T08:27:32.509Z,2.90
2023-03-31T08:30:03.136Z,5.30
2023-03-31T08:32:33.314Z,3.10
2023-03-31T08:35:00.936Z,4.00
2023-03-31T08:37:28.441Z,6.90
2023-03-31T08:39:56.048Z,6.05
2023-03-31T08:42:39.602Z,4.53
2023-03-31T08:45:22.226Z,5.88
2023-03-31T08:47:53.915Z,3.90
2023-03-31T08:50:25.494Z,3.22
2023-03-31T08:53:08.324Z,2.50
2023-03-31T08:55:44.923Z,2.33
2023-03-31T08:58:40.299Z,2.35
2023-03-31T09:01:32.528Z,2.90
2023-03-31T09:04:16.089Z,2.45
2023-03-31T09:07:15.185Z,3.08
2023-03-31T09:09:52.032Z,2.38
2023-03-31T09:12:32.717Z,2.10
2023-03-31T09:15:05.203Z,2.50
2023-03-31T09:17:41.019Z,2.05
2023-03-31T09:20:17.608Z,2.10
2023-03-31T09:22:52.832Z,2.45
2023-03-31T09:25:27.456Z,2.35
2023-03-31T09:27:58.259Z,2.17
2023-03-31T09:30:34.542Z,1.90
2023-03-31T09:33:31.768Z,2.10
2023-03-31T09:35:59.707Z,2.22
2023-03-31T09:38:31.197Z,2.30
2023-03-31T09:40:59.961Z,2.50
2023-03-31T09:43:30.187Z,2.63
2023-03-31T09:46:14.868Z,2.10
2023-03-31T09:49:06.246Z,2.22
2023-03-31T09:51:37.732Z,3.15
2023-03-31T09:54:21.380Z,2.40
2023-03-31T09:56:53.373Z,3.50
2023-03-31T09:59:29.944Z,2.45
2023-03-31T10:02:00.616Z,2.00
2023-03-31T10:04:30.842Z,2.22
2023-03-31T10:06:59.020Z,3.50
2023-03-31T10:09:30.229Z,2.92
2023-03-31T10:12:06.843Z,4.30
2023-03-31T10:14:54.664Z,2.03
2023-03-31T10:17:24.372Z,3.33
2023-03-31T10:19:54.289Z,1.83
2023-03-31T10:22:21.320Z,2.47
2023-03-31T10:24:50.082Z,2.40
2023-03-31T10:27:26.787Z,2.70
2023-03-31T10:29:58.998Z,2.50
2023-03-31T10:32:34.415Z,1.83
2023-03-31T10:35:08.084Z,2.00
2023-03-31T10:37:36.757Z,2.90
2023-03-31T10:40:18.256Z,2.28
2023-03-31T10:42:50.013Z,1.73
2023-03-31T10:45:33.514Z,1.40
2023-03-31T10:48:04.002Z,1.63
2023-03-31T10:50:34.248Z,2.20
2023-03-31T10:53:13.063Z,1.38
2023-03-31T10:55:46.083Z,2.03
2023-03-31T10:58:51.991Z,1.50
2023-03-31T11:01:45.481Z,1.80
2023-03-31T11:04:45.838Z,2.20
2023-03-31T11:07:27.559Z,2.00
2023-03-31T11:10:16.162Z,1.70
2023-03-31T11:12:49.795Z,1.50
2023-03-31T11:15:26.013Z,1.48
2023-03-31T11:18:14.631Z,1.50
2023-03-31T11:21:06.646Z,2.03
2023-03-31T11:23:42.010Z,1.60
2023-03-31T11:26:24.428Z,1.90
2023-03-31T11:29:18.226Z,1.92
2023-03-31T11:31:54.594Z,1.90
2023-03-31T11:34:43.154Z,2.92
2023-03-31T11:37:45.821Z,2.00
2023-03-31T11:40:37.071Z,1.87
2023-03-31T11:43:16.797Z,1.40
2023-03-31T11:45:53.757Z,1.50
2023-03-31T11:48:46.013Z,1.40
2023-03-31T11:51:30.672Z,1.13
2023-03-31T11:54:00.364Z,1.17
2023-03-31T11:56:35.548Z,0.98
2023-03-31T11:59:04.312Z,1.70
2023-03-31T12:01:41.488Z,1.50
2023-03-31T12:04:24.316Z,0.82
2023-03-31T12:06:54.473Z,1.20
2023-03-31T12:09:30.504Z,1.10
2023-03-31T12:12:07.249Z,1.10
2023-03-31T12:14:43.530Z,1.10
2023-03-31T12:17:14.456Z,1.40
2023-03-31T12:19:51.157Z,1.20
2023-03-31T12:22:26.948Z,1.25
2023-03-31T12:24:54.193Z,1.30
2023-03-31T12:27:27.795Z,1.27
2023-03-31T12:30:07.351Z,1.30
2023-03-31T12:32:45.956Z,1.38
2023-03-31T12:35:33.112Z,1.40
2023-03-31T12:38:24.798Z,1.35
2023-03-31T12:41:46.447Z,1.25
2023-03-31T12:44:52.069Z,1.30
2023-03-31T12:47:45.725Z,1.40
2023-03-31T12:50:30.895Z,1.40
2023-03-31T12:52:58.161Z,2.10
2023-03-31T12:55:55.302Z,1.83
2023-03-31T12:58:26.551Z,2.17
2023-03-31T13:01:05.319Z,1.63
2023-03-31T13:03:35.466Z,1.45
2023-03-31T13:06:03.645Z,1.15
2023-03-31T13:08:51.016Z,1.08
2023-03-31T13:11:39.029Z,1.20
2023-03-31T13:14:21.382Z,1.10
2023-03-31T13:16:56.240Z,1.70
2023-03-31T13:19:34.786Z,1.08
2023-03-31T13:22:04.190Z,1.10
2023-03-31T13:24:33.710Z,0.85
2023-03-31T13:27:35.849Z,1.00
2023-03-31T13:30:03.513Z,1.15
2023-03-31T13:32:31.333Z,1.00
2023-03-31T13:35:18.675Z,1.10
2023-03-31T13:38:16.149Z,1.13
2023-03-31T13:41:01.682Z,1.43
2023-03-31T13:44:00.115Z,1.08
2023-03-31T13:46:51.170Z,1.40
2023-03-31T13:49:48.164Z,1.13
2023-03-31T13:52:36.108Z,1.20
2023-03-31T13:55:28.572Z,1.43
2023-03-31T13:58:24.678Z,1.30
2023-03-31T14:01:27.482Z,1.60
2023-03-31T14:04:12.336Z,1.23
2023-03-31T14:06:48.824Z,1.10
2023-03-31T14:09:25.956Z,1.00
2023-03-31T14:11:52.798Z,0.98
2023-03-31T14:14:19.727Z,0.80
2023-03-31T14:16:48.503Z,0.98
2023-03-31T14:19:40.110Z,1.08
2023-03-31T14:22:26.052Z,1.00
2023-03-31T14:25:04.732Z,0.90
2023-03-31T14:27:43.772Z,1.50
2023-03-31T14:30:29.802Z,0.95
2023-03-31T14:33:17.426Z,1.10
2023-03-31T14:36:02.686Z,0.90
2023-03-31T14:38:30.212Z,0.90
2023-03-31T14:41:00.971Z,1.42
2023-03-31T14:43:45.495Z,2.00
2023-03-31T14:46:12.484Z,1.10
2023-03-31T14:48:46.010Z,1.07
2023-03-31T14:51:15.809Z,1.60
2023-03-31T14:53:45.970Z,1.42
2023-03-31T14:56:18.087Z,1.60
2023-03-31T14:58:50.644Z,1.50
2023-03-31T15:01:34.515Z,2.17
2023-03-31T15:04:12.811Z,1.15
2023-03-31T15:06:42.327Z,1.45
2023-03-31T15:09:24.919Z,1.42
2023-03-31T15:11:59.222Z,1.17
2023-03-31T15:14:37.894Z,1.40
2023-03-31T15:17:04.681Z,1.30
2023-03-31T15:19:34.811Z,1.85
2023-03-31T15:22:20.668Z,1.88
2023-03-31T15:24:47.626Z,1.60
2023-03-31T15:27:37.104Z,1.87
2023-03-31T15:30:26.422Z,2.10
2023-03-31T15:32:58.808Z,2.22
2023-03-31T15:35:33.605Z,1.90
2023-03-31T15:38:03.463Z,1.90
2023-03-31T15:40:36.653Z,1.70
2023-03-31T15:43:24.572Z,2.05
2023-03-31T15:45:57.463Z,1.90
2023-03-31T15:48:34.343Z,1.80
2023-03-31T15:51:38.167Z,1.88
2023-03-31T15:54:36.200Z,2.00
2023-03-31T15:57:05.573Z,1.40
2023-03-31T16:02:42.330Z,1.80
2023-03-31T16:08:37.527Z,1.63
2023-03-31T16:11:13.477Z,1.90
2023-03-31T16:13:44.618Z,1.70
2023-03-31T16:16:15.294Z,1.45
2023-03-31T16:18:51.868Z,1.90
2023-03-31T16:21:28.647Z,1.87
2023-03-31T16:23:58.520Z,2.10
2023-03-31T16:26:28.020Z,2.00
2023-03-31T16:28:57.698Z,2.20
2023-03-31T16:31:37.616Z,2.08
2023-03-31T16:34:07.098Z,1.83
2023-03-31T16:36:34.002Z,2.35
2023-03-31T16:39:05.042Z,1.83
2023-03-31T16:41:37.553Z,2.38
2023-03-31T16:44:06.330Z,2.10
2023-03-31T16:46:33.440Z,2.20
2023-03-31T16:49:00.544Z,2.30
2023-03-31T16:51:27.641Z,2.30
2023-03-31T16:53:56.051Z,2.40
2023-03-31T16:56:24.393Z,2.88
2023-03-31T16:58:51.742Z,2.50
2023-03-31T17:01:18.813Z,2.30
2023-03-31T17:03:48.007Z,2.10
2023-03-31T17:06:15.051Z,2.38
2023-03-31T17:08:42.137Z,1.95
2023-03-31T17:11:11.678Z,2.20
2023-03-31T17:13:39.749Z,1.70
2023-03-31T17:16:18.587Z,1.70
2023-03-31T17:18:51.303Z,2.17
2023-03-31T17:21:19.318Z,2.45
2023-03-31T17:23:47.379Z,2.23
2023-03-31T17:26:14.686Z,2.10
2023-03-31T17:28:42.176Z,2.33
2023-03-31T17:31:17.144Z,2.40
2023-03-31T17:33:44.021Z,2.30
2023-03-31T17:36:11.451Z,2.50
2023-03-31T17:38:39.901Z,2.55
2023-03-31T17:41:10.075Z,2.60
2023-03-31T17:43:38.219Z,2.25
2023-03-31T17:46:13.638Z,1.70
2023-03-31T17:48:41.037Z,1.53
2023-03-31T17:51:26.622Z,1.88
2023-03-31T17:53:53.643Z,1.65
2023-03-31T17:56:20.651Z,1.73
2023-03-31T17:58:48.054Z,2.10
2023-03-31T18:01:15.169Z,2.10
2023-03-31T18:03:42.314Z,2.00
2023-03-31T18:06:12.823Z,2.00
2023-03-31T18:08:41.664Z,2.20
2023-03-31T18:11:09.649Z,2.00
2023-03-31T18:13:37.435Z,1.97
2023-03-31T18:16:05.448Z,1.70
2023-03-31T18:18:32.735Z,1.90
2023-03-31T18:21:04.488Z,1.58
2023-03-31T18:23:32.067Z,1.75
2023-03-31T18:25:58.853Z,1.73
2023-03-31T18:28:25.705Z,1.67
2023-03-31T18:30:53.419Z,1.80
2023-03-31T18:33:20.405Z,1.80
2023-03-31T18:35:48.418Z,1.58
2023-03-31T18:38:16.572Z,1.60
2023-03-31T18:40:50.847Z,1.92
2023-03-31T18:43:22.459Z,2.28
2023-03-31T18:45:50.095Z,1.77
2023-03-31T18:48:22.134Z,1.88
2023-03-31T18:50:53.685Z,1.90
2023-03-31T18:53:21.769Z,2.00
2023-03-31T18:55:52.719Z,2.05
2023-03-31T18:58:19.942Z,1.60
2023-03-31T19:00:46.768Z,1.73
2023-03-31T19:03:14.091Z,2.00
2023-03-31T19:05:41.189Z,2.00
2023-03-31T19:08:08.096Z,1.90
2023-03-31T19:10:34.875Z,1.42
2023-03-31T19:13:01.831Z,1.73
2023-03-31T19:15:29.213Z,2.43
2023-03-31T19:17:56.372Z,1.80
2023-03-31T19:20:23.174Z,1.98
2023-03-31T19:22:51.150Z,2.20
2023-03-31T19:25:19.916Z,2.00
2023-03-31T19:27:47.391Z,2.30
2023-03-31T19:30:18.392Z,2.28
2023-03-31T19:32:47.598Z,2.20
2023-03-31T19:35:20.926Z,2.60
2023-03-31T19:37:48.812Z,2.30
2023-03-31T19:40:15.746Z,2.10
2023-03-31T19:42:44.270Z,2.03
2023-03-31T19:45:11.444Z,2.13
2023-03-31T19:47:38.494Z,2.28
2023-03-31T19:50:06.822Z,2.13
2023-03-31T19:52:33.599Z,2.20
2023-03-31T19:55:00.299Z,2.28
2023-03-31T19:57:27.097Z,2.53
2023-03-31T19:59:53.874Z,2.55
2023-03-31T20:02:20.917Z,2.55
2023-03-31T20:04:47.900Z,2.40
2023-03-31T20:07:14.690Z,2.63
2023-03-31T20:09:42.079Z,2.70
2023-03-31T20:12:08.962Z,2.70
2023-03-31T20:14:35.694Z,2.58
2023-03-31T20:17:04.145Z,2.10
2023-03-31T20:19:30.837Z,2.22
2023-03-31T20:21:57.883Z,2.53
2023-03-31T20:24:25.133Z,2.00
2023-03-31T20:26:51.957Z,2.40
2023-03-31T20:29:18.927Z,2.30
2023-03-31T20:31:46.116Z,2.40
2023-03-31T20:34:15.065Z,3.40
2023-03-31T20:36:44.018Z,2.33
2023-03-31T20:39:12.856Z,3.25
2023-03-31T20:41:40.191Z,2.00
2023-03-31T20:44:12.612Z,2.05
2023-03-31T20:46:43.243Z,2.05
2023-03-31T20:49:10.158Z,2.58
2023-03-31T20:51:38.690Z,2.30
2023-03-31T20:54:07.030Z,2.17
2023-03-31T20:56:39.798Z,2.67
2023-03-31T20:59:09.834Z,2.78
2023-03-31T21:01:37.462Z,2.05
2023-03-31T21:04:06.663Z,2.60
2023-03-31T21:06:42.090Z,3.27
2023-03-31T21:09:09.535Z,3.20
2023-03-31T21:11:36.604Z,3.25
2023-03-31T21:14:03.627Z,3.13
2023-03-31T21:16:30.598Z,3.50
2023-03-31T21:18:59.863Z,3.70
2023-03-31T21:21:27.760Z,4.15
2023-03-31T21:23:54.968Z,3.58
2023-03-31T21:26:22.180Z,2.50
2023-03-31T21:28:54.398Z,3.08
2023-03-31T21:31:24.460Z,3.40
2023-03-31T21:33:53.219Z,4.10
2023-03-31T21:36:22.678Z,3.53
2023-03-31T21:38:50.526Z,3.97
2023-03-31T21:41:19.725Z,3.97
2023-03-31T21:43:47.070Z,3.60
2023-03-31T21:46:18.698Z,3.63
2023-03-31T21:48:46.943Z,3.25
2023-03-31T21:51:13.802Z,3.35
2023-03-31T21:53:40.756Z,3.10
2023-03-31T21:56:07.744Z,3.80
2023-03-31T21:58:34.945Z,4.65
2023-03-31T22:01:04.381Z,4.10
2023-03-31T22:03:34.476Z,4.47
2023-03-31T22:06:03.438Z,4.28
2023-03-31T22:08:31.676Z,5.13
2023-03-31T22:11:00.243Z,5.90
2023-03-31T22:13:28.422Z,4.00
2023-03-31T22:15:56.372Z,3.55
2023-03-31T22:18:23.866Z,2.70
2023-03-31T22:20:51.232Z,2.60
2023-03-31T22:23:20.471Z,2.58
2023-03-31T22:25:47.834Z,3.70
2023-03-31T22:28:15.443Z,2.75
2023-03-31T22:30:42.811Z,4.13
2023-03-31T22:33:09.848Z,5.07
2023-03-31T22:35:36.720Z,4.82
2023-03-31T22:38:04.927Z,5.07
2023-03-31T22:40:32.999Z,5.05
2023-03-31T22:43:00.995Z,5.93
2023-03-31T22:45:28.076Z,4.50
2023-03-31T22:47:55.045Z,5.40
2023-03-31T22:50:22.286Z,5.60
2023-03-31T22:52:49.271Z,5.50
2023-03-31T22:55:16.234Z,4.80
2023-03-31T22:57:43.213Z,5.07
2023-03-31T23:00:10.608Z,4.93
2023-03-31T23:02:37.345Z,6.65
2023-03-31T23:05:04.314Z,7.38
2023-03-31T23:07:31.578Z,6.80
2023-03-31T23:09:58.384Z,7.63
2023-03-31T23:12:26.011Z,6.68
2023-03-31T23:14:52.891Z,3.63
2023-03-31T23:17:19.885Z,2.83
2023-03-31T23:19:47.684Z,2.13
2023-03-31T23:22:14.754Z,3.70
2023-03-31T23:24:41.557Z,3.58
2023-03-31T23:27:08.659Z,3.75
2023-03-31T23:29:35.685Z,6.55
2023-03-31T23:32:02.729Z,5.55
2023-03-31T23:34:29.425Z,6.37
2023-03-31T23:36:56.721Z,5.72
2023-03-31T23:39:23.493Z,4.95
2023-03-31T23:41:50.309Z,6.60
2023-03-31T23:44:17.115Z,5.55
2023-03-31T23:46:44.416Z,6.07
2023-03-31T23:49:11.804Z,5.35
2023-03-31T23:51:38.676Z,3.95
2023-03-31T23:54:05.449Z,4.15
2023-03-31T23:56:32.230Z,7.28
2023-03-31T23:58:59.034Z,9.67
